Terminal Aerodrome Forecast
Issued by NWS Sterling, VA

Current Version | Previous Version | Graphics & Text | Print | Product List | Glossary On
Versions: 1 2 3 4 5 6 7 8 9 10 11 12 13 14 15 16 17 18 19 20 21 22 23
934
FTUS41 KLWX 122113 AAA
TAFDCA
TAF AMD
KDCA 122113Z 1221/1318 19007KT P6SM BKN050 BKN060
     FM122300 18006KT 3SM -SHSN SCT010 BKN050
     FM130400 23005KT P6SM SCT040 BKN050
     FM130700 29015G24KT P6SM BKN070
     FM130800 30020G33KT P6SM SCT060 BKN070
     FM131000 31024G40KT P6SM SCT060 BKN250=

USA.gov is the U.S. government's official web portal to all federal, state and local government web resources and services.